Time;durP1;ratioP1;P1;durP2;ratioP2;P2;SDS_P1;SDS_P2;PMS_P1;PMS_P2;Temp;Humidity;BMP_temperature;BMP_pressure;BME280_temperature;BME280_humidity;BME280_pressure;Samples;Min_cycle;Max_cycle;Signal;HPM_P1;HPM_P2
2022/04/16 00:01:11;;;;;;;14.48;8.05;;;8.20;99.90;;;;;;4179983;28;20041;-83
2022/04/16 00:03:12;;;;;;;13.15;7.70;;;8.50;99.90;;;;;;4180400;28;20049;-82
2022/04/16 00:05:14;;;;;;;13.43;7.53;;;8.00;99.90;;;;;;4180367;28;20465;-82
2022/04/16 00:07:15;;;;;;;12.75;7.18;;;8.00;99.90;;;;;;4180614;28;20041;-82
2022/04/16 00:09:15;;;;;;;13.70;7.40;;;8.50;99.90;;;;;;4179988;28;20116;-83
2022/04/16 00:11:16;;;;;;;15.25;7.35;;;7.90;99.90;;;;;;4180551;28;20121;-83
2022/04/16 00:13:18;;;;;;;11.48;7.25;;;7.80;99.90;;;;;;4179342;28;20045;-82
2022/04/16 00:15:19;;;;;;;15.55;7.65;;;8.40;99.90;;;;;;4178983;28;20045;-82
2022/04/16 00:17:19;;;;;;;15.02;7.57;;;7.70;99.90;;;;;;4180556;28;20108;-83
2022/04/16 00:19:20;;;;;;;14.23;7.30;;;7.70;99.90;;;;;;4180439;28;20042;-83
2022/04/16 00:21:22;;;;;;;12.55;7.05;;;8.00;99.90;;;;;;4162994;28;20049;-82
2022/04/16 00:23:25;;;;;;;15.57;8.52;;;7.60;99.90;;;;;;4179962;28;20506;-83
2022/04/16 00:25:26;;;;;;;14.18;8.13;;;8.20;99.90;;;;;;4179243;28;20120;-82
2022/04/16 00:27:26;;;;;;;13.20;8.18;;;7.60;99.90;;;;;;4178985;28;20056;-82
2022/04/16 00:29:27;;;;;;;14.27;8.05;;;7.50;99.90;;;;;;4180661;28;20029;-83
2022/04/16 00:31:28;;;;;;;13.93;7.88;;;7.50;99.90;;;;;;4180127;28;20079;-82
2022/04/16 00:33:30;;;;;;;14.45;8.20;;;7.50;99.90;;;;;;4179918;28;20080;-82
2022/04/16 00:35:31;;;;;;;14.48;7.80;;;7.80;99.90;;;;;;4180292;28;20048;-82
2022/04/16 00:37:31;;;;;;;17.27;9.30;;;8.20;99.90;;;;;;4180102;28;20049;-82
2022/04/16 00:39:32;;;;;;;16.13;8.07;;;7.40;99.90;;;;;;4178752;28;20136;-83
2022/04/16 00:41:35;;;;;;;16.63;8.98;;;8.00;99.90;;;;;;4180417;28;20106;-83
2022/04/16 00:43:36;;;;;;;19.10;8.50;;;7.40;99.90;;;;;;4180290;28;20045;-82
2022/04/16 00:45:37;;;;;;;15.20;7.93;;;7.40;99.90;;;;;;4180355;28;20080;-82
2022/04/16 00:47:38;;;;;;;17.60;8.52;;;7.40;99.90;;;;;;4179739;28;20053;-82
2022/04/16 00:49:39;;;;;;;18.85;9.98;;;7.40;99.90;;;;;;4180186;28;20495;-82
2022/04/16 00:51:45;;;;;;;15.90;8.45;;;8.10;99.90;;;;;;4180009;28;20053;-83
2022/04/16 00:53:46;;;;;;;15.43;8.35;;;8.10;99.90;;;;;;4178595;28;20052;-83
2022/04/16 00:55:47;;;;;;;15.82;7.93;;;7.40;99.90;;;;;;4179961;28;20083;-83
2022/04/16 00:57:48;;;;;;;17.55;8.55;;;7.40;99.90;;;;;;4179022;28;20049;-83
2022/04/16 00:59:50;;;;;;;14.43;8.13;;;8.00;99.90;;;;;;4180087;28;20041;-82
2022/04/16 01:01:51;;;;;;;18.75;9.18;;;8.00;99.90;;;;;;4179661;28;20447;-83
2022/04/16 01:03:51;;;;;;;18.35;9.15;;;7.30;99.90;;;;;;4178642;28;20103;-82
2022/04/16 01:05:55;;;;;;;13.85;7.68;;;8.20;99.90;;;;;;4180554;28;20095;-83
2022/04/16 01:07:58;;;;;;;13.55;8.35;;;7.40;99.90;;;;;;4183233;28;20072;-82
2022/04/16 01:09:59;;;;;;;15.80;9.15;;;7.40;99.90;;;;;;4182832;28;20045;-82
2022/04/16 01:12:00;;;;;;;17.95;8.32;;;7.40;99.90;;;;;;4181759;28;20052;-82
2022/04/16 01:14:02;;;;;;;18.73;8.05;;;7.40;99.90;;;;;;4181865;28;20410;-82
2022/04/16 01:16:04;;;;;;;16.63;9.05;;;7.40;99.90;;;;;;4182755;28;20392;-82
2022/04/16 01:18:05;;;;;;;17.45;9.23;;;7.40;99.90;;;;;;4181740;28;20132;-83
2022/04/16 01:20:06;;;;;;;14.98;9.13;;;7.50;99.90;;;;;;4181335;28;20049;-83
2022/04/16 01:22:11;;;;;;;13.13;8.27;;;7.50;99.90;;;;;;4182930;28;20052;-83
2022/04/16 01:24:14;;;;;;;17.13;9.48;;;8.00;99.90;;;;;;4182776;28;20045;-83
2022/04/16 01:26:15;;;;;;;15.35;9.23;;;7.90;99.90;;;;;;4183018;28;20111;-83
2022/04/16 01:28:15;;;;;;;21.15;10.55;;;8.20;99.90;;;;;;4183007;28;20036;-82
2022/04/16 01:30:21;;;;;;;13.48;8.20;;;7.50;99.90;;;;;;4182917;28;20064;-82
2022/04/16 01:32:23;;;;;;;16.23;8.52;;;7.50;99.90;;;;;;4182803;28;20071;-83
2022/04/16 01:34:25;;;;;;;13.15;7.65;;;7.80;99.90;;;;;;4182273;28;20483;-83
2022/04/16 01:36:29;;;;;;;15.75;9.57;;;7.50;99.90;;;;;;4182768;28;20090;-83
2022/04/16 01:38:30;;;;;;;16.67;8.95;;;7.50;99.90;;;;;;4181341;28;20052;-83
2022/04/16 01:40:31;;;;;;;14.88;8.68;;;7.60;99.90;;;;;;4182818;28;20510;-81
2022/04/16 01:42:34;;;;;;;17.77;9.38;;;8.00;99.90;;;;;;4182838;28;20053;-82
2022/04/16 01:44:35;;;;;;;20.38;9.43;;;7.60;99.90;;;;;;4182453;28;20037;-83
2022/04/16 01:46:36;;;;;;;18.23;9.55;;;8.10;99.90;;;;;;4182652;28;20471;-83
2022/04/16 01:48:37;;;;;;;14.40;8.45;;;7.30;99.90;;;;;;4182455;28;20103;-83
2022/04/16 01:50:39;;;;;;;17.42;9.07;;;7.60;99.90;;;;;;4182253;28;20409;-82
2022/04/16 01:52:43;;;;;;;16.10;9.23;;;8.10;99.90;;;;;;4182706;28;20403;-82
2022/04/16 01:54:44;;;;;;;16.60;9.10;;;7.70;99.90;;;;;;4182409;28;20099;-82
2022/04/16 01:56:45;;;;;;;20.98;9.88;;;7.50;99.90;;;;;;4182646;28;20056;-82
2022/04/16 01:58:46;;;;;;;16.63;9.25;;;8.00;99.90;;;;;;4182650;28;20049;-83
2022/04/16 02:00:49;;;;;;;17.38;9.30;;;8.10;99.90;;;;;;4182024;28;20048;-83
2022/04/16 02:02:50;;;;;;;14.52;8.75;;;7.50;99.90;;;;;;4182510;28;20045;-82
2022/04/16 02:04:51;;;;;;;17.55;8.52;;;7.90;99.90;;;;;;4182319;28;20048;-82
2022/04/16 02:06:52;;;;;;;14.77;9.18;;;7.40;99.90;;;;;;4182345;28;20084;-83
2022/04/16 02:08:52;;;;;;;15.68;9.23;;;7.70;99.90;;;;;;4182300;28;20044;-83
2022/04/16 02:10:54;;;;;;;16.08;8.80;;;7.30;99.90;;;;;;4182296;28;20163;-83
2022/04/16 02:12:55;;;;;;;19.83;9.73;;;7.30;99.90;;;;;;4180722;28;20606;-82
2022/04/16 02:14:55;;;;;;;16.58;8.70;;;7.30;99.90;;;;;;4181894;28;20045;-82
2022/04/16 02:16:57;;;;;;;18.77;9.90;;;8.10;99.90;;;;;;4181762;28;20057;-82
2022/04/16 02:19:00;;;;;;;16.23;9.18;;;7.30;99.90;;;;;;4182228;28;20069;-83
2022/04/16 02:21:00;;;;;;;18.73;10.95;;;7.40;99.90;;;;;;4182307;28;20188;-83
2022/04/16 02:23:03;;;;;;;18.70;10.70;;;7.30;99.90;;;;;;4181454;28;20049;-83
2022/04/16 02:25:05;;;;;;;18.38;10.30;;;8.10;99.90;;;;;;4182213;28;20390;-82
2022/04/16 02:27:06;;;;;;;22.05;11.82;;;7.40;99.90;;;;;;4182039;28;20127;-83
2022/04/16 02:29:08;;;;;;;26.52;11.60;;;7.50;99.90;;;;;;4180607;28;20057;-83
2022/04/16 02:31:08;;;;;;;18.65;10.32;;;7.50;99.90;;;;;;4180590;28;20049;-83
2022/04/16 02:33:10;;;;;;;21.05;10.63;;;8.20;99.90;;;;;;4181915;28;20048;-82
2022/04/16 02:35:15;;;;;;;22.33;11.85;;;7.50;99.90;;;;;;4181342;28;20072;-83
2022/04/16 02:37:16;;;;;;;21.83;11.30;;;7.70;99.90;;;;;;4180599;28;20049;-83
2022/04/16 02:39:18;;;;;;;20.23;12.20;;;7.60;99.90;;;;;;4163975;28;20111;-82
2022/04/16 02:41:22;;;;;;;22.05;12.30;;;8.30;99.90;;;;;;4181362;28;20542;-83
2022/04/16 02:43:23;;;;;;;22.95;11.70;;;7.70;99.90;;;;;;4181768;28;20464;-82
2022/04/16 02:47:43;;;;;;;21.08;11.85;;;7.70;99.90;;;;;;4181611;28;20049;-83
2022/04/16 02:49:44;;;;;;;29.80;13.80;;;8.40;99.90;;;;;;4181684;28;20124;-83
2022/04/16 02:51:45;;;;;;;24.60;12.18;;;8.20;99.90;;;;;;4181298;28;20045;-82
2022/04/16 02:53:45;;;;;;;23.83;12.00;;;7.80;99.90;;;;;;4180782;28;20451;-82
2022/04/16 02:55:46;;;;;;;24.85;12.52;;;7.80;99.90;;;;;;4181578;28;20514;-82
2022/04/16 02:57:49;;;;;;;23.92;12.55;;;8.20;99.90;;;;;;4181251;28;20052;-82
2022/04/16 02:59:52;;;;;;;24.42;12.15;;;8.60;99.90;;;;;;4181326;28;20095;-82
2022/04/16 03:01:54;;;;;;;20.27;11.15;;;7.90;99.90;;;;;;4181186;28;20398;-82
2022/04/16 03:03:54;;;;;;;20.52;11.93;;;7.90;99.90;;;;;;4180612;28;20099;-82
2022/04/16 03:05:55;;;;;;;20.75;12.25;;;7.90;99.90;;;;;;4180620;28;20453;-82
2022/04/16 03:07:57;;;;;;;23.20;12.32;;;8.00;99.90;;;;;;4180515;28;20490;-82
2022/04/16 03:09:57;;;;;;;21.80;13.02;;;8.00;99.90;;;;;;4180415;28;20099;-82
2022/04/16 03:11:58;;;;;;;25.70;13.27;;;8.40;99.90;;;;;;4181183;28;20395;-82
2022/04/16 03:17:31;;;;;;;25.08;13.18;;;8.60;99.90;;;;;;4181184;28;20487;-83
2022/04/16 03:18:39;;;;;;;28.63;13.73;;;8.00;99.90;;;;;;4181153;28;20442;-83
2022/04/16 03:20:42;;;;;;;24.75;13.07;;;8.40;99.90;;;;;;4181473;28;20544;-83
2022/04/16 03:22:43;;;;;;;24.45;13.88;;;8.00;99.90;;;;;;4181135;28;20098;-83
2022/04/16 03:24:43;;;;;;;24.60;13.98;;;8.00;99.90;;;;;;4180672;28;20115;-83
2022/04/16 03:26:44;;;;;;;28.17;14.32;;;8.00;99.90;;;;;;4180799;28;20045;-82
2022/04/16 03:28:45;;;;;;;25.20;13.82;;;8.20;99.90;;;;;;4180268;28;20110;-82
2022/04/16 03:30:46;;;;;;;27.15;13.63;;;8.00;99.90;;;;;;4181133;28;20125;-82
2022/04/16 03:32:50;;;;;;;27.13;13.20;;;8.50;99.90;;;;;;4180660;28;20041;-83
2022/04/16 03:34:51;;;;;;;28.30;14.32;;;8.60;99.90;;;;;;4180652;28;20048;-82
2022/04/16 03:36:52;;;;;;;32.58;15.60;;;8.10;99.90;;;;;;4180167;28;20045;-83
2022/04/16 03:38:53;;;;;;;30.10;14.38;;;8.40;99.90;;;;;;4179834;28;20599;-83
2022/04/16 03:40:53;;;;;;;31.20;15.88;;;8.70;99.90;;;;;;4180777;28;20041;-83
2022/04/16 03:42:57;;;;;;;27.83;15.20;;;8.00;99.90;;;;;;4180680;28;20041;-83
2022/04/16 03:44:58;;;;;;;32.28;15.00;;;8.60;99.90;;;;;;4180871;28;20048;-83
2022/04/16 03:46:59;;;;;;;27.50;15.10;;;8.00;99.90;;;;;;4180733;28;20048;-83
2022/04/16 03:49:00;;;;;;;30.77;13.73;;;8.00;99.90;;;;;;4179410;28;20052;-82
2022/04/16 03:51:00;;;;;;;27.65;14.20;;;8.10;99.90;;;;;;4180338;28;20124;-82
2022/04/16 03:53:02;;;;;;;26.85;14.60;;;8.50;99.90;;;;;;4180529;28;20052;-83
2022/04/16 04:00:00;;;;;;;29.33;15.93;;;8.00;99.90;;;;;;4180781;28;20127;-83
2022/04/16 04:02:00;;;;;;;37.40;16.35;;;7.80;99.90;;;;;;4179474;28;20053;-82
2022/04/16 04:04:01;;;;;;;31.90;16.33;;;8.20;99.90;;;;;;4179919;28;20135;-81
2022/04/16 04:06:02;;;;;;;30.52;14.98;;;7.90;99.90;;;;;;4180656;28;20507;-83
2022/04/16 04:08:06;;;;;;;33.30;16.35;;;7.70;99.90;;;;;;4180510;28;20048;-82
2022/04/16 04:10:07;;;;;;;35.83;17.77;;;7.70;99.90;;;;;;4180759;28;20414;-82
2022/04/16 04:12:15;;;;;;;34.00;16.70;;;7.70;99.90;;;;;;4180542;28;20040;-82
2022/04/16 04:14:16;;;;;;;36.53;17.40;;;7.70;99.90;;;;;;4180447;28;20094;-81
2022/04/16 04:16:19;;;;;;;34.13;17.10;;;7.60;99.90;;;;;;4179692;28;20506;-82
2022/04/16 04:18:22;;;;;;;32.10;17.80;;;8.00;99.90;;;;;;4180347;28;20060;-82
2022/04/16 04:20:23;;;;;;;32.45;17.40;;;7.60;99.90;;;;;;4180262;28;20186;-82
2022/04/16 04:22:24;;;;;;;35.45;18.30;;;7.90;99.90;;;;;;4180498;28;20383;-81
2022/04/16 04:24:24;;;;;;;32.85;16.80;;;7.60;99.90;;;;;;4180530;28;20044;-82
2022/04/16 04:26:25;;;;;;;36.25;16.88;;;7.60;99.90;;;;;;4179215;28;20041;-82
2022/04/16 04:28:26;;;;;;;34.80;17.65;;;7.70;99.90;;;;;;4179874;28;20107;-83
2022/04/16 04:30:27;;;;;;;32.53;17.55;;;7.60;99.90;;;;;;4178882;28;20053;-83
2022/04/16 04:32:28;;;;;;;32.15;17.60;;;8.30;99.90;;;;;;4180408;28;20083;-82
2022/04/16 04:34:29;;;;;;;32.22;17.23;;;7.60;99.90;;;;;;4179931;28;20040;-81
2022/04/16 04:36:29;;;;;;;29.98;16.13;;;7.60;99.90;;;;;;4180211;28;20040;-82
2022/04/16 04:38:30;;;;;;;33.42;17.45;;;7.60;99.90;;;;;;4180829;28;20049;-82
2022/04/16 04:40:31;;;;;;;28.77;15.60;;;7.50;99.90;;;;;;4183355;28;20041;-82
2022/04/16 04:42:34;;;;;;;34.75;17.25;;;7.50;99.90;;;;;;4183555;28;20487;-82
2022/04/16 04:44:34;;;;;;;34.85;16.52;;;7.50;99.90;;;;;;4185567;28;20060;-81
2022/04/16 04:46:35;;;;;;;31.80;15.85;;;8.00;99.90;;;;;;4186726;28;20495;-82
2022/04/16 04:48:36;;;;;;;28.17;16.15;;;7.40;99.90;;;;;;4184076;28;20380;-82
2022/04/16 04:50:36;;;;;;;33.80;17.17;;;7.50;99.90;;;;;;4184677;28;20566;-82
2022/04/16 04:52:38;;;;;;;28.25;15.82;;;8.20;99.90;;;;;;4185231;28;20051;-82
2022/04/16 04:54:40;;;;;;;29.33;16.13;;;7.50;99.90;;;;;;4184225;28;20056;-83
2022/04/16 04:56:41;;;;;;;31.27;15.50;;;7.50;99.90;;;;;;4183368;28;20538;-82
2022/04/16 04:58:41;;;;;;;28.80;15.57;;;7.50;99.90;;;;;;4183351;28;20049;-83
2022/04/16 05:00:42;;;;;;;27.45;16.20;;;8.00;99.90;;;;;;4182820;28;20776;-82
2022/04/16 05:02:45;;;;;;;26.10;15.13;;;7.50;99.90;;;;;;4183251;28;20049;-82
2022/04/16 05:04:46;;;;;;;30.13;15.70;;;7.80;99.90;;;;;;4181983;28;20120;-82
2022/04/16 05:06:48;;;;;;;26.23;13.23;;;7.50;99.90;;;;;;4183233;28;20064;-82
2022/04/16 05:08:48;;;;;;;26.98;14.45;;;8.20;99.90;;;;;;4182739;28;20055;-82
2022/04/16 05:10:49;;;;;;;26.67;13.65;;;7.50;99.90;;;;;;4183390;28;20096;-82
2022/04/16 05:12:50;;;;;;;23.35;13.20;;;8.10;99.90;;;;;;4182816;28;20041;-81
2022/04/16 05:14:50;;;;;;;24.60;13.43;;;7.50;99.90;;;;;;4182897;28;20433;-82
2022/04/16 05:16:51;;;;;;;24.77;13.27;;;7.50;99.90;;;;;;4182751;28;20134;-82
2022/04/16 05:18:52;;;;;;;26.15;12.20;;;7.70;99.90;;;;;;4182228;28;20098;-82
2022/04/16 05:20:52;;;;;;;27.48;12.85;;;7.50;99.90;;;;;;4182809;28;20046;-82
2022/04/16 05:22:53;;;;;;;22.90;11.27;;;8.10;99.90;;;;;;4182948;28;20451;-82
2022/04/16 05:24:54;;;;;;;28.40;12.50;;;7.60;99.90;;;;;;4182826;28;20052;-82
2022/04/16 05:26:54;;;;;;;23.75;12.77;;;7.60;99.90;;;;;;4181741;28;20047;-82
2022/04/16 05:28:56;;;;;;;22.70;11.75;;;7.70;99.90;;;;;;4182707;28;20049;-82
2022/04/16 05:30:58;;;;;;;21.58;12.43;;;8.30;99.90;;;;;;4182959;28;20076;-82
2022/04/16 05:33:02;;;;;;;23.08;12.35;;;8.10;99.90;;;;;;4183068;28;20076;-82
2022/04/16 05:35:05;;;;;;;25.88;12.75;;;8.50;99.90;;;;;;4182721;28;20040;-81
2022/04/16 05:37:06;;;;;;;27.00;12.98;;;7.70;99.90;;;;;;4182932;28;20049;-82
2022/04/16 05:39:07;;;;;;;23.95;13.27;;;7.70;99.90;;;;;;4181384;28;20049;-82
2022/04/16 05:41:08;;;;;;;27.88;12.85;;;7.70;99.90;;;;;;4182845;28;20127;-82
2022/04/16 05:43:11;;;;;;;26.70;12.90;;;8.20;99.90;;;;;;4182535;28;20053;-82
2022/04/16 05:45:14;;;;;;;24.40;12.32;;;8.30;99.90;;;;;;4182221;28;20045;-82
2022/04/16 05:47:15;;;;;;;26.50;13.93;;;7.70;99.90;;;;;;4182710;28;20045;-83
2022/04/16 05:49:15;;;;;;;25.98;13.40;;;8.50;99.90;;;;;;4182465;28;20037;-83
2022/04/16 05:51:17;;;;;;;27.30;13.18;;;8.20;99.90;;;;;;4181618;28;20103;-82
2022/04/16 05:53:18;;;;;;;26.33;13.60;;;7.80;99.90;;;;;;4182462;28;20147;-83
2022/04/16 05:55:19;;;;;;;24.88;12.68;;;8.40;99.90;;;;;;4181953;28;20040;-83
2022/04/16 05:57:22;;;;;;;26.33;12.48;;;8.40;99.90;;;;;;4182432;28;20045;-82
2022/04/16 05:59:23;;;;;;;21.55;12.40;;;7.80;99.90;;;;;;4182385;28;20071;-82
2022/04/16 06:01:23;;;;;;;25.65;12.55;;;7.90;99.90;;;;;;4181588;28;20045;-82
2022/04/16 06:03:25;;;;;;;30.35;13.90;;;7.90;99.90;;;;;;4182246;28;20505;-82
2022/04/16 06:05:28;;;;;;;28.48;12.75;;;8.00;99.90;;;;;;4180995;28;20049;-82
2022/04/16 06:07:28;;;;;;;28.02;13.85;;;8.50;99.90;;;;;;4182284;28;20572;-82
2022/04/16 06:09:29;;;;;;;24.27;11.82;;;8.80;99.90;;;;;;4181094;28;20044;-82
2022/04/16 06:11:32;;;;;;;22.58;12.18;;;7.90;99.90;;;;;;4164503;28;20045;-82
2022/04/16 06:13:32;;;;;;;23.17;12.18;;;7.90;99.90;;;;;;4181754;28;20443;-83
2022/04/16 06:15:33;;;;;;;20.60;11.13;;;7.80;99.90;;;;;;4180466;28;20385;-83
2022/04/16 06:17:35;;;;;;;20.65;10.38;;;7.80;99.90;;;;;;4180198;28;20156;-82
2022/04/16 06:19:35;;;;;;;18.42;10.88;;;8.20;99.90;;;;;;4182149;28;20041;-82
2022/04/16 06:21:36;;;;;;;20.88;11.52;;;8.50;99.90;;;;;;4180847;28;20137;-82
2022/04/16 06:23:37;;;;;;;20.90;11.30;;;8.10;99.90;;;;;;4182172;28;20075;-82
2022/04/16 06:25:38;;;;;;;22.98;11.63;;;;;;;;;;4181999;28;20041;-82
2022/04/16 06:27:39;;;;;;;22.60;11.07;;;;;;;;;;4181897;28;20041;-82
2022/04/16 06:29:41;;;;;;;21.92;10.93;;;;;;;;;;4181267;28;20044;-82
2022/04/16 06:31:46;;;;;;;23.27;11.15;;;;;;;;;;4181946;28;20501;-83
2022/04/16 06:33:47;;;;;;;21.95;10.60;;;;;;;;;;4180460;28;20057;-82
2022/04/16 06:35:48;;;;;;;21.55;10.68;;;;;;;;;;4181612;28;20040;-82
2022/04/16 06:37:50;;;;;;;26.98;11.35;;;;;;;;;;4181847;28;20094;-82
2022/04/16 06:39:51;;;;;;;20.30;10.05;;;;;;;;;;4181735;28;20048;-83
2022/04/16 06:41:53;;;;;;;21.73;9.88;;;;;;;;;;4181787;28;20041;-83
2022/04/16 06:43:54;;;;;;;24.63;10.80;;;;;;;;;;4181201;28;20072;-83
2022/04/16 06:45:55;;;;;;;20.77;11.10;;;;;;;;;;4181566;28;20041;-81
2022/04/16 06:47:57;;;;;;;22.20;10.57;;;;;;;;;;4181586;28;20494;-82
2022/04/16 06:49:59;;;;;;;21.15;10.70;;;;;;;;;;4181658;28;20072;-83
2022/04/16 06:52:01;;;;;;;21.42;10.13;;;;;;;;;;4181532;28;20119;-82
2022/04/16 06:54:02;;;;;;;21.90;10.52;;;;;;;;;;4181402;28;20464;-83
2022/04/16 06:56:03;;;;;;;22.67;10.32;;;;;;;;;;4179923;28;20094;-83
2022/04/16 06:58:04;;;;;;;18.33;9.50;;;;;;;;;;4181451;28;20505;-83
2022/04/16 07:00:06;;;;;;;18.40;9.93;;;8.30;99.90;;;;;;4181576;28;20059;-82
2022/04/16 07:02:09;;;;;;;17.42;9.40;;;9.30;99.90;;;;;;4181588;28;20630;-82
2022/04/16 07:04:11;;;;;;;18.00;9.07;;;9.40;99.90;;;;;;4181344;28;20099;-81
2022/04/16 07:06:11;;;;;;;18.58;9.85;;;9.40;99.90;;;;;;4180479;28;20052;-82
2022/04/16 07:08:12;;;;;;;17.45;8.60;;;9.90;99.90;;;;;;4181319;28;20422;-82
2022/04/16 07:10:13;;;;;;;19.13;8.63;;;9.60;99.90;;;;;;4181580;28;20048;-82
2022/04/16 07:12:13;;;;;;;20.08;8.48;;;9.70;99.90;;;;;;4181287;28;20499;-82
2022/04/16 07:14:14;;;;;;;18.15;9.10;;;9.90;99.90;;;;;;4181173;28;20037;-83
2022/04/16 07:16:15;;;;;;;16.40;9.82;;;10.10;99.90;;;;;;4180684;28;20118;-82
2022/04/16 07:18:15;;;;;;;19.42;8.57;;;10.10;99.90;;;;;;4179484;28;20059;-82
2022/04/16 07:20:16;;;;;;;18.42;8.93;;;10.00;99.90;;;;;;4181506;28;20487;-82
2022/04/16 07:22:20;;;;;;;16.98;8.02;;;10.10;99.90;;;;;;4181132;28;20072;-82
2022/04/16 07:24:21;;;;;;;17.52;9.23;;;10.20;99.90;;;;;;4181267;28;20033;-81
2022/04/16 07:26:22;;;;;;;17.88;7.93;;;;;;;;;;4180812;28;20106;-82
2022/04/16 07:28:23;;;;;;;15.45;8.23;;;10.80;99.90;;;;;;4179619;28;20473;-82
2022/04/16 07:30:23;;;;;;;15.15;7.95;;;10.40;99.90;;;;;;4162900;28;20033;-82
2022/04/16 07:32:25;;;;;;;15.82;7.82;;;;;;;;;;4180916;28;20048;-83
2022/04/16 07:34:27;;;;;;;14.13;7.85;;;10.40;99.90;;;;;;4180829;28;20037;-83
2022/04/16 07:36:27;;;;;;;16.27;8.27;;;11.00;99.90;;;;;;4180930;28;20049;-82
2022/04/16 07:38:28;;;;;;;15.50;8.02;;;10.50;99.90;;;;;;4180891;28;20045;-82
2022/04/16 07:40:29;;;;;;;17.40;7.90;;;10.50;99.90;;;;;;4180417;28;20407;-83
2022/04/16 07:42:32;;;;;;;15.77;7.65;;;;;;;;;;4180431;28;20049;-82
2022/04/16 07:44:33;;;;;;;11.30;6.82;;;;;;;;;;4180500;28;20053;-83
2022/04/16 07:46:35;;;;;;;15.48;7.53;;;11.00;99.90;;;;;;4181014;28;20048;-82
2022/04/16 07:48:37;;;;;;;18.27;6.97;;;;;;;;;;4180795;28;20040;-82
2022/04/16 07:50:38;;;;;;;13.57;7.57;;;;;;;;;;4180503;28;20099;-83
2022/04/16 07:52:40;;;;;;;14.45;7.20;;;;;;;;;;4178860;28;20131;-83
2022/04/16 07:54:41;;;;;;;13.70;6.88;;;;;;;;;;4180694;28;20077;-82
2022/04/16 07:56:42;;;;;;;10.57;5.05;;;;;;;;;;4180636;28;20072;-82
2022/04/16 07:58:43;;;;;;;15.30;5.68;;;;;;;;;;4180575;28;20037;-83
2022/04/16 08:00:44;;;;;;;13.25;6.55;;;;;;;;;;4180651;28;20453;-82
2022/04/16 08:02:45;;;;;;;10.40;4.95;;;;;;;;;;4180510;28;20497;-82
2022/04/16 08:04:46;;;;;;;13.10;5.80;;;;;;;;;;4179003;28;20041;-82
2022/04/16 08:06:47;;;;;;;11.20;5.55;;;;;;;;;;4180371;28;20044;-82
2022/04/16 08:08:48;;;;;;;12.80;5.05;;;;;;;;;;4179444;28;20447;-82
2022/04/16 08:10:53;;;;;;;11.05;5.18;;;;;;;;;;4180335;28;20087;-82
2022/04/16 08:12:54;;;;;;;12.52;5.40;;;;;;;;;;4180406;28;20107;-83
2022/04/16 08:14:55;;;;;;;10.65;5.18;;;;;;;;;;4161862;28;20050;-82
2022/04/16 08:16:56;;;;;;;9.65;4.47;;;;;;;;;;4179550;28;20064;-83
2022/04/16 08:18:58;;;;;;;10.60;5.50;;;;;;;;;;4180128;28;20052;-82
2022/04/16 08:20:59;;;;;;;9.60;4.28;;;;;;;;;;4180393;28;20041;-83
2022/04/16 08:23:05;;;;;;;8.70;4.80;;;;;;;;;;4180142;28;20041;-82
2022/04/16 08:27:22;;;;;;;6.97;3.85;;;;;;;;;;4180266;28;20175;-82
2022/04/16 08:29:23;;;;;;;9.90;3.88;;;;;;;;;;4179789;28;20048;-82
2022/04/16 08:31:24;;;;;;;6.57;3.58;;;;;;;;;;4179075;28;20060;-82
2022/04/16 08:33:25;;;;;;;8.20;3.90;;;;;;;;;;4180250;28;20115;-83
2022/04/16 08:35:27;;;;;;;6.95;3.58;;;;;;;;;;4180226;28;20041;-82
2022/04/16 08:37:29;;;;;;;6.88;3.35;;;;;;;;;;4179970;28;20049;-82
2022/04/16 08:39:30;;;;;;;6.90;3.28;;;;;;;;;;4180226;28;20515;-83
2022/04/16 08:41:31;;;;;;;6.38;3.17;;;;;;;;;;4179744;28;20045;-83
2022/04/16 08:43:33;;;;;;;4.10;2.70;;;;;;;;;;4180180;28;20562;-82
2022/04/16 08:45:35;;;;;;;5.40;2.70;;;;;;;;;;4180231;28;20037;-82
2022/04/16 08:47:38;;;;;;;7.32;2.92;;;;;;;;;;4180096;28;20491;-83
2022/04/16 08:49:39;;;;;;;5.47;2.33;;;;;;;;;;4180497;28;20618;-83
2022/04/16 08:51:40;;;;;;;4.43;2.83;;;;;;;;;;4179794;28;20540;-83
2022/04/16 08:53:41;;;;;;;6.25;2.45;;;;;;;;;;4180180;28;20049;-81
2022/04/16 08:55:42;;;;;;;3.95;2.25;;;;;;;;;;4178613;28;20087;-83
2022/04/16 08:57:43;;;;;;;6.20;2.22;;;;;;;;;;4180341;28;20049;-83
2022/04/16 08:59:51;;;;;;;7.63;2.10;;;;;;;;;;4178756;28;20045;-83
2022/04/16 09:01:52;;;;;;;4.95;2.53;;;;;;;;;;4180052;28;20399;-83
2022/04/16 09:03:58;;;;;;;3.00;2.00;;;;;;;;;;4179508;28;20489;-83
2022/04/16 09:05:59;;;;;;;3.25;1.95;;;;;;;;;;4178489;28;20052;-83
2022/04/16 09:08:02;;;;;;;5.60;2.00;;;;;;;;;;4180120;28;20048;-83
2022/04/16 09:10:07;;;;;;;5.07;2.33;;;;;;;;;;4179977;28;20412;-83
2022/04/16 09:12:18;;;;;;;5.18;2.00;;;;;;;;;;4179941;28;20051;-82
2022/04/16 09:14:19;;;;;;;4.50;2.17;;;;;;;;;;4179400;28;20087;-82
2022/04/16 09:16:20;;;;;;;4.88;1.75;;;;;;;;;;4179758;28;20060;-82
2022/04/16 09:18:21;;;;;;;5.00;1.83;;;;;;;;;;4179879;28;20116;-84
2022/04/16 09:20:23;;;;;;;2.00;1.10;;;;;;;;;;4179735;28;20048;-83
2022/04/16 09:22:30;;;;;;;2.05;1.00;;;;;;;;;;4179281;28;20080;-83
2022/04/16 09:24:49;;;;;;;2.13;1.00;;;;;;;;;;4179697;28;20045;-82
2022/04/16 09:26:51;;;;;;;1.35;1.00;;;;;;;;;;4181562;28;20045;-83
2022/04/16 09:28:52;;;;;;;2.38;0.65;;;;;;;;;;4182547;28;20604;-83
2022/04/16 09:30:55;;;;;;;3.03;0.80;;;;;;;;;;4182831;28;20150;-82
2022/04/16 09:32:57;;;;;;;1.25;0.68;;;;;;;;;;4182990;28;20048;-83
2022/04/16 09:34:58;;;;;;;1.15;0.70;;;;;;;;;;4182616;28;20041;-83
2022/04/16 09:37:11;;;;;;;1.65;0.60;;;;;;;;;;4181717;28;20045;-82
2022/04/16 09:39:13;;;;;;;0.90;0.50;;;;;;;;;;4183139;28;20044;-83
2022/04/16 09:41:14;;;;;;;4.22;0.60;;;;;;;;;;4182365;28;20273;-82
2022/04/16 09:43:16;;;;;;;0.52;0.32;;;;;;;;;;4182691;28;20044;-84
2022/04/16 09:45:17;;;;;;;1.48;0.50;;;;;;;;;;4182659;28;20048;-84
2022/04/16 09:47:20;;;;;;;0.98;0.40;;;;;;;;;;4182361;28;20045;-83
2022/04/16 09:49:22;;;;;;;0.68;0.55;;;;;;;;;;4182908;28;20048;-82
2022/04/16 09:51:24;;;;;;;1.00;0.77;;;;;;;;;;4182492;28;20048;-82
2022/04/16 09:53:25;;;;;;;1.63;0.55;;;;;;;;;;4182110;28;20055;-82
2022/04/16 09:55:27;;;;;;;2.22;0.60;;;;;;;;;;4182375;28;20176;-82
2022/04/16 09:57:33;;;;;;;1.40;0.80;;;;;;;;;;4182424;28;20072;-82
2022/04/16 09:59:36;;;;;;;0.65;0.50;;;;;;;;;;4182385;28;20045;-83
2022/04/16 10:01:46;;;;;;;1.92;0.50;;;;;;;;;;4180941;28;20522;-82
2022/04/16 10:03:48;;;;;;;1.98;0.98;;;;;;;;;;4180862;28;20617;-83
2022/04/16 10:05:50;;;;;;;1.80;0.50;;;;;;;;;;4182399;28;20037;-82
2022/04/16 10:07:52;;;;;;;1.05;0.50;;;;;;;;;;4181858;28;20049;-82
2022/04/16 10:09:54;;;;;;;6.70;0.57;;;;;;;;;;4182000;28;20123;-83
2022/04/16 10:14:25;;;;;;;1.50;0.60;;;;;;;;;;4182136;28;20083;-83
2022/04/16 10:16:32;;;;;;;0.85;0.35;;;;;;;;;;4181250;28;20110;-83
2022/04/16 10:18:35;;;;;;;2.38;0.77;;;;;;;;;;4182076;28;20473;-83
2022/04/16 10:20:36;;;;;;;2.78;0.60;;;;;;;;;;4182239;28;20041;-83
2022/04/16 10:22:37;;;;;;;2.00;0.65;;;;;;;;;;4182123;28;20127;-83
2022/04/16 10:24:48;;;;;;;2.05;0.57;;;;;;;;;;4182038;28;20044;-83
2022/04/16 10:26:49;;;;;;;1.58;0.60;;;;;;;;;;4181513;28;20115;-83
2022/04/16 10:28:57;;;;;;;1.25;0.60;;;;;;;;;;4181808;28;20140;-82
2022/04/16 10:30:58;;;;;;;1.50;0.57;;;;;;;;;;4181842;28;20471;-82
2022/04/16 10:32:59;;;;;;;0.60;0.40;;;;;;;;;;4180743;28;20498;-83
2022/04/16 10:35:07;;;;;;;0.80;0.60;;;;;;;;;;4181379;28;20044;-83
2022/04/16 10:37:20;;;;;;;0.50;0.50;;;;;;;;;;4181212;28;20041;-83
2022/04/16 10:39:27;;;;;;;0.80;0.50;;;;;;;;;;4181755;28;20541;-83
2022/04/16 10:41:28;;;;;;;0.98;0.50;;;;;;;;;;4181724;28;20497;-83
2022/04/16 10:43:31;;;;;;;2.25;0.85;;;;;;;;;;4181396;28;20045;-83
2022/04/16 10:45:37;;;;;;;0.57;0.50;;;;;;;;;;4181700;28;20051;-83
2022/04/16 10:47:39;;;;;;;0.85;0.38;;;;;;;;;;4181372;28;20040;-83
2022/04/16 10:49:41;;;;;;;3.42;0.93;;;;;;;;;;4181559;28;20128;-83
2022/04/16 10:51:42;;;;;;;0.75;0.50;;;;;;;;;;4181726;28;20045;-83
2022/04/16 10:53:43;;;;;;;1.38;0.55;;;;;;;;;;4182541;28;20522;-82
2022/04/16 10:55:50;;;;;;;0.77;0.40;;;;;;;;;;4181131;28;20483;-83
2022/04/16 10:58:03;;;;;;;0.85;0.45;;;;;;;;;;4181801;28;20072;-82
2022/04/16 11:00:13;;;;;;;0.98;0.40;;;;;;;;;;4182348;28;20131;-83
2022/04/16 11:02:22;;;;;;;0.90;0.50;;;;;;;;;;4182694;28;20584;-83
2022/04/16 11:04:23;;;;;;;4.60;0.50;;;;;;;;;;4183906;28;20048;-81
2022/04/16 11:06:34;;;;;;;0.40;0.40;;;;;;;;;;4187857;28;20041;-82
2022/04/16 11:08:36;;;;;;;1.15;0.40;;;;;;;;;;4188020;28;20068;-82
2022/04/16 11:10:37;;;;;;;0.57;0.50;;;;;;;;;;4196298;28;20053;-81
2022/04/16 11:12:38;;;;;;;1.27;0.40;;;;;;;;;;4199224;28;20108;-82
2022/04/16 11:14:40;;;;;;;3.88;0.60;;;;;;;;;;4198465;28;20079;-83
2022/04/16 11:16:44;;;;;;;3.33;1.35;;;;;;;;;;4180058;28;20088;-83